Portada
METAR-TAF:

METAR-TAF

Aeroports :

Riohacha, Colòmbia

latitud: 11-32N, longitud: 072-56W, altitud: 4 m

Observació

L'informe es va fer fa 1 hora i 9 minuts, a les 14:00 UTC
Vent 10 kt del Est
Temperatura 30°C
Humitat 75%
Pressió 1014 hPa
Visibilitat 10 km o més
Cel ennuvolat a una alçada de 1500 ft
Núvols disperses a una alçada de 20000 ft

METAR: SKRH 261400Z 10010KT 9999 BKN015 SCT200 30/25 A2993

Hora: 10:09 (15:09 UTC)


TAF: manca

Observacions i pronòstics meteorològics de més de 4000 aeroports (METAR i TAF).

Les estacions disponibles són els punts grocs i vermells al mapa.

Posi el ratolí al punt desitjat per veure el nom de l'estació.

Feu clic per veure les observacions i els pronòstics meteorològics.

Per canviar el mapa: feu clic els botons verds amb una creu de color negre per apropar; al botó verd amb un guió per allunyar la imatge; o en les fletxes verdes per a mapes adjacents.


METAR-TAF: